Trujillo Alto, PR (00976)

6:06 AM AST on December 29, 2014 (GMT -0400)
Cupey Carr 199/844 | Change Station
CLOSE
Current Station
Personal Weather Station
Location: San Juan, SAN JUAN
Elevation: 348 ft
Nearby Weather Stations

Elev 348 ft 18.36 °N, 66.04 °W | Updated 4 minutes ago

Scattered Clouds
Scattered Clouds
69.3 °F
Feels Like 69.3 °F
N
0.0
Wind Variable Wind from East

Today
High -- | Low -- °F
--% Chance of Precip.
Yesterday
High -- | Low -- °F
Precip. -- in
6:54 AM 5:57 PM
First Quarter, 57% visible
Pressure 30.05 in
Visibility 10.0 miles
Clouds Few 2500 ft
Scattered Clouds 3500 ft
Scattered Clouds 6000 ft
Dew Point 69 °F
Humidity 98%
Rainfall 0.00 in
Snow Depth Not available.
UV 0 out of 12
Pollen Not available.
Air Quality Not available.
Flu Activity Not available.
METAR TJSJ 290956Z 00000KT 10SM FEW025 SCT035 SCT060 23/22 A3006 RMK AO2 RAB20E29 SLP176 P0000 T02330217

More Conditions Fewer Conditions

Pressure 30.05 in
Visibility 10.0 miles
Clouds Few 2500 ft
Scattered Clouds 3500 ft
Scattered Clouds 6000 ft
Dew Point 69 °F
Humidity 98%
Rainfall 0.00 in
Snow Depth Not available.
UV 0 out of 12
Pollen Not available.
Air Quality Not available.
Flu Activity Not available.
METAR TJSJ 290956Z 00000KT 10SM FEW025 SCT035 SCT060 23/22 A3006 RMK AO2 RAB20E29 SLP176 P0000 T02330217

More Conditions Fewer Conditions

10-Day Weather Forecast

Almanac

Astronomy

Dec. 29, 2014 Rise Set
Actual Time
Civil Twilight
Nautical Twilight
Astronomical Twilight
Moon
Length of Visible Light
Length of Day
Tomorrow will be .
, % of the Moon is Illuminated

Today's Extremes

State Highs State Lows

Community

WunderPhotos

Upload Photos

1,781,563 photos uploaded!

WunderBlogs® & News

Nearby

Air Quality

  Air Quality AQ Index Pollutant
Not available.

Snow Depth

Station Depth Elevation

Earthquake Activity

City Distance Mag. Time & Date
Minimum magnitude displayed is 2.5.

Coastal Water Temperatures

Place Temperature

Nearby Weather Stations